createdAt,value
2016-12-16T00:00:52.474Z,962.03
2016-12-16T00:01:52.490Z,962.05
2016-12-16T00:02:52.505Z,962.02
2016-12-16T00:03:52.525Z,962
2016-12-16T00:04:52.533Z,962.05
2016-12-16T00:05:52.547Z,962.01
2016-12-16T00:06:52.563Z,962.01
2016-12-16T00:07:52.577Z,962.03
2016-12-16T00:08:52.592Z,962.06
2016-12-16T00:09:52.606Z,962.01
2016-12-16T00:10:52.621Z,962.02
2016-12-16T00:11:52.635Z,962.06
2016-12-16T00:12:52.650Z,962.06
2016-12-16T00:13:52.665Z,962.02
2016-12-16T00:14:52.680Z,962.05
2016-12-16T00:15:52.694Z,962.03
2016-12-16T00:16:52.708Z,962.04
2016-12-16T00:17:52.727Z,962.05
2016-12-16T00:18:52.739Z,962.05
2016-12-16T00:19:52.753Z,962.09
2016-12-16T00:20:52.766Z,962.1
2016-12-16T00:21:52.783Z,962.1
2016-12-16T00:22:52.796Z,962.11
2016-12-16T00:23:52.811Z,962.11
2016-12-16T00:24:52.826Z,962.11
2016-12-16T00:25:52.841Z,962.1
2016-12-16T00:26:52.855Z,962.1
2016-12-16T00:27:52.871Z,962.11
2016-12-16T00:28:52.884Z,962.11
2016-12-16T00:29:52.899Z,962.05
2016-12-16T00:30:52.913Z,962.09
2016-12-16T00:31:52.927Z,962.06
2016-12-16T00:32:52.943Z,962.09
2016-12-16T00:33:52.957Z,962.1
2016-12-16T00:34:52.972Z,962.08
2016-12-16T00:35:52.986Z,962.09
2016-12-16T00:36:53.001Z,962.11
2016-12-16T00:37:53.015Z,962.13
2016-12-16T00:38:53.030Z,962.1
2016-12-16T00:39:53.063Z,962.11
2016-12-16T00:40:53.060Z,962.12
2016-12-16T00:41:53.073Z,962.14
2016-12-16T00:42:53.087Z,962.14
2016-12-16T00:43:53.103Z,962.12
2016-12-16T00:44:53.116Z,962.14
2016-12-16T00:45:53.130Z,962.16
2016-12-16T00:46:53.146Z,962.14
2016-12-16T00:47:53.160Z,962.15
2016-12-16T00:48:53.174Z,962.18
2016-12-16T00:49:53.189Z,962.2
2016-12-16T00:50:53.202Z,962.22
2016-12-16T00:51:53.305Z,962.2
2016-12-16T00:52:53.232Z,962.26
2016-12-16T00:53:53.247Z,962.22
2016-12-16T00:54:53.262Z,962.25
2016-12-16T00:55:53.275Z,962.23
2016-12-16T00:56:53.292Z,962.26
2016-12-16T00:57:53.305Z,962.27
2016-12-16T00:58:53.319Z,962.29
2016-12-16T00:59:53.333Z,962.26
2016-12-16T01:00:53.348Z,962.25
2016-12-16T01:01:53.364Z,962.3
2016-12-16T01:02:53.377Z,962.28
2016-12-16T01:03:53.393Z,962.27
2016-12-16T01:04:53.407Z,962.31
2016-12-16T01:05:53.422Z,962.3
2016-12-16T01:06:53.436Z,962.34
2016-12-16T01:07:53.450Z,962.31
2016-12-16T01:08:53.477Z,962.35
2016-12-16T01:09:53.478Z,962.35
2016-12-16T01:10:53.493Z,962.37
2016-12-16T01:11:53.508Z,962.38
2016-12-16T01:12:53.523Z,962.4
2016-12-16T01:13:53.536Z,962.44
2016-12-16T01:14:53.551Z,962.42
2016-12-16T01:15:53.566Z,962.45
2016-12-16T01:16:53.580Z,962.39
2016-12-16T01:17:53.594Z,962.42
2016-12-16T01:18:53.608Z,962.41
2016-12-16T01:19:53.623Z,962.45
2016-12-16T01:20:53.637Z,962.43
2016-12-16T01:21:53.651Z,962.43
2016-12-16T01:22:53.667Z,962.44
2016-12-16T01:23:53.698Z,962.38
2016-12-16T01:24:53.695Z,962.43
2016-12-16T01:25:53.712Z,962.42
2016-12-16T01:26:53.725Z,962.47
2016-12-16T01:27:53.738Z,962.46
2016-12-16T01:28:53.752Z,962.49
2016-12-16T01:29:53.769Z,962.46
2016-12-16T01:30:53.781Z,962.47
2016-12-16T01:31:53.796Z,962.46
2016-12-16T01:32:53.809Z,962.46
2016-12-16T01:33:53.824Z,962.49
2016-12-16T01:34:53.839Z,962.45
2016-12-16T01:35:53.853Z,962.48
2016-12-16T01:36:53.868Z,962.46
2016-12-16T01:37:53.891Z,962.47
2016-12-16T01:38:53.897Z,962.46
2016-12-16T01:39:53.910Z,962.49
2016-12-16T01:40:53.926Z,962.47
2016-12-16T01:41:53.941Z,962.51
2016-12-16T01:42:53.954Z,962.49
2016-12-16T01:43:53.968Z,962.51
2016-12-16T01:44:53.982Z,962.46
2016-12-16T01:45:53.997Z,962.51
2016-12-16T01:46:54.011Z,962.51
2016-12-16T01:47:54.025Z,962.52
2016-12-16T01:48:54.040Z,962.5
2016-12-16T01:49:54.054Z,962.52
2016-12-16T01:50:54.069Z,962.54
2016-12-16T01:51:54.084Z,962.5
2016-12-16T01:52:54.112Z,962.52
2016-12-16T01:53:54.113Z,962.53
2016-12-16T01:54:54.126Z,962.57
2016-12-16T01:55:54.140Z,962.53
2016-12-16T01:56:54.155Z,962.53
2016-12-16T01:57:54.168Z,962.55
2016-12-16T01:58:54.183Z,962.55
2016-12-16T01:59:54.197Z,962.52
2016-12-16T02:00:54.212Z,962.51
2016-12-16T02:01:54.226Z,962.53
2016-12-16T02:02:54.240Z,962.51
2016-12-16T02:03:54.255Z,962.49
2016-12-16T02:04:54.269Z,962.47
2016-12-16T02:05:54.283Z,962.47
2016-12-16T02:06:54.302Z,962.49
2016-12-16T02:07:54.312Z,962.5
2016-12-16T02:08:54.325Z,962.47
2016-12-16T02:09:54.340Z,962.5
2016-12-16T02:10:54.354Z,962.5
2016-12-16T02:11:54.368Z,962.51
2016-12-16T02:12:54.382Z,962.49
2016-12-16T02:13:54.397Z,962.48
2016-12-16T02:14:54.412Z,962.51
2016-12-16T02:15:54.426Z,962.51
2016-12-16T02:16:54.440Z,962.54
2016-12-16T02:17:54.454Z,962.5
2016-12-16T02:18:54.468Z,962.54
2016-12-16T02:19:54.481Z,962.48
2016-12-16T02:20:54.496Z,962.52
2016-12-16T02:21:54.524Z,962.52
2016-12-16T02:22:54.525Z,962.51
2016-12-16T02:23:54.539Z,962.52
2016-12-16T02:24:54.553Z,962.5
2016-12-16T02:25:54.567Z,962.5
2016-12-16T02:26:54.582Z,962.54
2016-12-16T02:27:54.597Z,962.51
2016-12-16T02:28:54.610Z,962.5
2016-12-16T02:29:54.624Z,962.55
2016-12-16T02:30:54.638Z,962.53
2016-12-16T02:31:54.652Z,962.53
2016-12-16T02:32:54.667Z,962.53
2016-12-16T02:33:54.683Z,962.56
2016-12-16T02:34:54.695Z,962.57
2016-12-16T02:35:54.715Z,962.51
2016-12-16T02:36:54.724Z,962.54
2016-12-16T02:37:54.738Z,962.53
2016-12-16T02:38:54.752Z,962.53
2016-12-16T02:39:54.768Z,962.53
2016-12-16T02:40:54.780Z,962.59
2016-12-16T02:41:54.794Z,962.61
2016-12-16T02:42:54.809Z,962.62
2016-12-16T02:43:54.823Z,962.61
2016-12-16T02:44:54.837Z,962.61
2016-12-16T02:45:54.851Z,962.57
2016-12-16T02:46:54.866Z,962.58
2016-12-16T02:47:54.880Z,962.58
2016-12-16T02:48:54.892Z,962.57
2016-12-16T02:49:54.908Z,962.6
2016-12-16T02:50:54.939Z,962.59
2016-12-16T02:51:54.936Z,962.57
2016-12-16T02:52:54.950Z,962.61
2016-12-16T02:53:54.967Z,962.57
2016-12-16T02:54:54.978Z,962.61
2016-12-16T02:55:54.993Z,962.58
2016-12-16T02:56:55.007Z,962.56
2016-12-16T02:57:55.022Z,962.52
2016-12-16T02:58:55.035Z,962.53
2016-12-16T02:59:55.047Z,962.55
2016-12-16T03:00:55.063Z,962.56
2016-12-16T03:01:55.077Z,962.57
2016-12-16T03:02:55.091Z,962.57
2016-12-16T03:03:55.107Z,962.5
2016-12-16T03:04:55.127Z,962.56
2016-12-16T03:05:55.134Z,962.57
2016-12-16T03:06:55.148Z,962.58
2016-12-16T03:07:55.162Z,962.55
2016-12-16T03:08:55.175Z,962.54
2016-12-16T03:09:55.191Z,962.57
2016-12-16T03:10:55.202Z,962.56
2016-12-16T03:11:55.218Z,962.49
2016-12-16T03:12:55.233Z,962.49
2016-12-16T03:13:55.247Z,962.5
2016-12-16T03:14:55.261Z,962.47
2016-12-16T03:15:55.276Z,962.47
2016-12-16T03:16:55.289Z,962.49
2016-12-16T03:17:55.303Z,962.49
2016-12-16T03:18:55.318Z,962.46
2016-12-16T03:19:55.352Z,962.5
2016-12-16T03:20:55.346Z,962.53
2016-12-16T03:21:55.359Z,962.53
2016-12-16T03:22:55.373Z,962.55
2016-12-16T03:23:55.386Z,962.55
2016-12-16T03:24:55.403Z,962.53
2016-12-16T03:25:55.417Z,962.56
2016-12-16T03:26:55.430Z,962.57
2016-12-16T03:27:55.446Z,962.56
2016-12-16T03:28:55.459Z,962.59
2016-12-16T03:29:55.472Z,962.59
2016-12-16T03:30:55.486Z,962.55
2016-12-16T03:31:55.501Z,962.56
2016-12-16T03:32:55.514Z,962.59
2016-12-16T03:33:55.541Z,962.6
2016-12-16T03:34:55.542Z,962.61
2016-12-16T03:35:55.557Z,962.6
2016-12-16T03:36:55.570Z,962.6
2016-12-16T03:37:55.584Z,962.57
2016-12-16T03:38:55.599Z,962.56
2016-12-16T03:39:55.613Z,962.6
2016-12-16T03:40:55.628Z,962.62
2016-12-16T03:41:55.641Z,962.6
2016-12-16T03:42:55.655Z,962.63
2016-12-16T03:43:55.668Z,962.68
2016-12-16T03:44:55.682Z,962.64
2016-12-16T03:45:55.698Z,962.69
2016-12-16T03:46:55.711Z,962.68
2016-12-16T03:47:55.724Z,962.67
2016-12-16T03:48:55.739Z,962.7
2016-12-16T03:49:55.752Z,962.68
2016-12-16T03:50:55.767Z,962.7
2016-12-16T03:51:55.780Z,962.69
2016-12-16T03:52:55.795Z,962.72
2016-12-16T03:53:55.808Z,962.7
2016-12-16T03:54:55.821Z,962.71
2016-12-16T03:55:55.836Z,962.71
2016-12-16T03:56:55.851Z,962.68
2016-12-16T03:57:55.864Z,962.71
2016-12-16T03:58:55.877Z,962.73
2016-12-16T03:59:55.892Z,962.73
2016-12-16T04:00:55.906Z,962.72
2016-12-16T04:01:55.921Z,962.72
2016-12-16T04:02:55.956Z,962.72
2016-12-16T04:03:55.947Z,962.71
2016-12-16T04:04:55.962Z,962.74
2016-12-16T04:05:55.975Z,962.78
2016-12-16T04:06:55.988Z,962.75
2016-12-16T04:07:56.002Z,962.78
2016-12-16T04:08:56.016Z,962.79
2016-12-16T04:09:56.031Z,962.77
2016-12-16T04:10:56.045Z,962.75
2016-12-16T04:11:56.059Z,962.77
2016-12-16T04:12:56.072Z,962.8
2016-12-16T04:13:56.088Z,962.81
2016-12-16T04:14:56.100Z,962.76
2016-12-16T04:15:56.116Z,962.82
2016-12-16T04:16:56.129Z,962.85
2016-12-16T04:17:56.144Z,962.81
2016-12-16T04:18:56.157Z,962.9
2016-12-16T04:19:56.171Z,962.85
2016-12-16T04:20:56.185Z,962.86
2016-12-16T04:21:56.201Z,962.86
2016-12-16T04:22:56.214Z,962.86
2016-12-16T04:23:56.227Z,962.87
2016-12-16T04:24:56.242Z,962.88
2016-12-16T04:25:56.256Z,962.86
2016-12-16T04:26:56.269Z,962.89
2016-12-16T04:27:56.283Z,962.93
2016-12-16T04:28:56.297Z,962.91
2016-12-16T04:29:56.310Z,962.93
2016-12-16T04:30:56.325Z,962.95
2016-12-16T04:31:56.339Z,962.94
2016-12-16T04:32:56.354Z,963
2016-12-16T04:33:56.371Z,963
2016-12-16T04:34:56.380Z,962.98
2016-12-16T04:35:56.395Z,963.01
2016-12-16T04:36:56.409Z,963.02
2016-12-16T04:37:56.424Z,963.01
2016-12-16T04:38:56.437Z,963
2016-12-16T04:39:56.452Z,962.98
2016-12-16T04:40:56.465Z,963
2016-12-16T04:41:56.479Z,963
2016-12-16T04:42:56.493Z,962.98
2016-12-16T04:43:56.506Z,963.05
2016-12-16T04:44:56.521Z,963.01
2016-12-16T04:45:56.534Z,963
2016-12-16T04:46:56.549Z,963.03
2016-12-16T04:47:56.564Z,963.09
2016-12-16T04:48:56.577Z,963.07
2016-12-16T04:49:56.591Z,963.06
2016-12-16T04:50:56.605Z,963.1
2016-12-16T04:51:56.618Z,963.08
2016-12-16T04:52:56.834Z,963.12
2016-12-16T04:53:56.655Z,963.11
2016-12-16T04:54:56.660Z,963.17
2016-12-16T04:55:56.674Z,963.18
2016-12-16T04:56:56.688Z,963.14
2016-12-16T04:57:56.803Z,963.16
2016-12-16T04:58:56.716Z,963.15
2016-12-16T04:59:56.730Z,963.17
2016-12-16T05:00:56.743Z,963.2
2016-12-16T05:01:56.757Z,963.15
2016-12-16T05:02:56.772Z,963.16
2016-12-16T05:03:56.785Z,963.14
2016-12-16T05:04:56.799Z,963.19
2016-12-16T05:05:56.813Z,963.19
2016-12-16T05:06:56.827Z,963.16
2016-12-16T05:07:56.846Z,963.19
2016-12-16T05:08:56.854Z,963.17
2016-12-16T05:09:56.869Z,963.14
2016-12-16T05:10:56.883Z,963.14
2016-12-16T05:11:56.896Z,963.13
2016-12-16T05:12:56.911Z,963.17
2016-12-16T05:13:56.924Z,963.19
2016-12-16T05:14:56.939Z,963.19
2016-12-16T05:15:56.953Z,963.19
2016-12-16T05:16:56.966Z,963.19
2016-12-16T05:17:56.979Z,963.17
2016-12-16T05:18:56.993Z,963.19
2016-12-16T05:19:57.007Z,963.22
2016-12-16T05:20:57.022Z,963.22
2016-12-16T05:21:57.035Z,963.2
2016-12-16T05:22:57.070Z,963.24
2016-12-16T05:23:57.063Z,963.26
2016-12-16T05:24:57.077Z,963.24
2016-12-16T05:25:57.091Z,963.25
2016-12-16T05:26:57.108Z,963.26
2016-12-16T05:27:57.118Z,963.29
2016-12-16T05:28:57.132Z,963.28
2016-12-16T05:29:57.151Z,963.31
2016-12-16T05:30:57.160Z,963.32
2016-12-16T05:31:57.174Z,963.32
2016-12-16T05:32:57.188Z,963.33
2016-12-16T05:33:57.201Z,963.34
2016-12-16T05:34:57.215Z,963.33
2016-12-16T05:35:57.229Z,963.37
2016-12-16T05:36:57.260Z,963.4
2016-12-16T05:37:57.256Z,963.36
2016-12-16T05:38:57.270Z,963.35
2016-12-16T05:39:57.286Z,963.38
2016-12-16T05:40:57.297Z,963.37
2016-12-16T05:41:57.311Z,963.42
2016-12-16T05:42:57.326Z,963.37
2016-12-16T05:43:57.341Z,963.37
2016-12-16T05:44:57.353Z,963.38
2016-12-16T05:45:57.367Z,963.37
2016-12-16T05:46:57.379Z,963.39
2016-12-16T05:47:57.394Z,963.34
2016-12-16T05:48:57.409Z,963.41
2016-12-16T05:49:57.423Z,963.38
2016-12-16T05:50:57.437Z,963.41
2016-12-16T05:51:57.451Z,963.39
2016-12-16T05:52:57.464Z,963.45
2016-12-16T05:53:57.478Z,963.43
2016-12-16T05:54:57.493Z,963.43
2016-12-16T05:55:57.505Z,963.38
2016-12-16T05:56:57.519Z,963.44
2016-12-16T05:57:57.534Z,963.43
2016-12-16T05:58:57.549Z,963.44
2016-12-16T05:59:57.563Z,963.48
2016-12-16T06:00:57.575Z,963.47
2016-12-16T06:01:57.589Z,963.46
2016-12-16T06:02:57.603Z,963.48
2016-12-16T06:03:57.617Z,963.48
2016-12-16T06:04:57.631Z,963.52
2016-12-16T06:05:57.646Z,963.49
2016-12-16T06:06:57.658Z,963.5
2016-12-16T06:07:57.672Z,963.53
2016-12-16T06:08:57.687Z,963.52
2016-12-16T06:09:57.700Z,963.54
2016-12-16T06:10:57.714Z,963.55
2016-12-16T06:11:57.727Z,963.55
2016-12-16T06:12:57.742Z,963.6
2016-12-16T06:13:57.755Z,963.59
2016-12-16T06:14:57.769Z,963.57
2016-12-16T06:15:57.785Z,963.58
2016-12-16T06:16:57.798Z,963.59
2016-12-16T06:17:57.820Z,963.59
2016-12-16T06:18:57.825Z,963.57
2016-12-16T06:19:57.839Z,963.58
2016-12-16T06:20:57.853Z,963.57
2016-12-16T06:21:57.866Z,963.57
2016-12-16T06:22:57.881Z,963.58
2016-12-16T06:23:57.896Z,963.55
2016-12-16T06:24:57.908Z,963.58
2016-12-16T06:25:57.923Z,963.58
2016-12-16T06:26:57.938Z,963.59
2016-12-16T06:27:57.962Z,963.61
2016-12-16T06:28:57.964Z,963.6
2016-12-16T06:29:57.978Z,963.6
2016-12-16T06:30:57.993Z,963.63
2016-12-16T06:31:58.007Z,963.63
2016-12-16T06:32:58.024Z,963.66
2016-12-16T06:33:58.034Z,963.66
2016-12-16T06:34:58.048Z,963.68
2016-12-16T06:35:58.063Z,963.69
2016-12-16T06:36:58.079Z,963.73
2016-12-16T06:37:58.091Z,963.71
2016-12-16T06:38:58.105Z,963.74
2016-12-16T06:39:58.119Z,963.69
2016-12-16T06:40:58.133Z,963.76
2016-12-16T06:41:58.152Z,963.75
2016-12-16T06:42:58.160Z,963.72
2016-12-16T06:43:58.175Z,963.74
2016-12-16T06:44:58.193Z,963.76
2016-12-16T06:45:58.203Z,963.75
2016-12-16T06:46:58.216Z,963.75
2016-12-16T06:47:58.230Z,963.78
2016-12-16T06:48:58.244Z,963.79
2016-12-16T06:49:58.259Z,963.82
2016-12-16T06:50:58.271Z,963.82
2016-12-16T06:51:58.285Z,963.86
2016-12-16T06:52:58.300Z,963.81
2016-12-16T06:53:58.313Z,963.85
2016-12-16T06:54:58.327Z,963.89
2016-12-16T06:55:58.342Z,963.86
2016-12-16T06:56:58.375Z,963.88
2016-12-16T06:57:58.368Z,963.9
2016-12-16T06:58:58.381Z,963.9
2016-12-16T06:59:58.397Z,963.91
2016-12-16T07:00:58.410Z,963.95
2016-12-16T07:01:58.424Z,963.92
2016-12-16T07:02:58.438Z,963.94
2016-12-16T07:03:58.453Z,963.94
2016-12-16T07:04:58.465Z,963.94
2016-12-16T07:05:58.479Z,963.92
2016-12-16T07:06:58.495Z,963.94
2016-12-16T07:07:58.508Z,963.92
2016-12-16T07:08:58.521Z,963.9
2016-12-16T07:09:58.534Z,963.89
2016-12-16T07:10:58.566Z,963.94
2016-12-16T07:11:58.564Z,963.92
2016-12-16T07:12:58.578Z,963.94
2016-12-16T07:13:58.590Z,963.9
2016-12-16T07:14:58.605Z,963.93
2016-12-16T07:15:58.619Z,963.92
2016-12-16T07:16:58.633Z,963.91
2016-12-16T07:17:58.647Z,963.94
2016-12-16T07:18:58.661Z,963.95
2016-12-16T07:19:58.675Z,963.89
2016-12-16T07:20:58.688Z,963.92
2016-12-16T07:21:58.703Z,963.91
2016-12-16T07:22:58.717Z,963.95
2016-12-16T07:23:58.730Z,963.96
2016-12-16T07:24:58.745Z,963.97
2016-12-16T07:25:58.760Z,964.04
2016-12-16T07:26:58.772Z,963.99
2016-12-16T07:27:58.786Z,963.97
2016-12-16T07:28:58.801Z,964
2016-12-16T07:29:58.813Z,963.99
2016-12-16T07:30:58.828Z,964.01
2016-12-16T07:31:58.842Z,963.97
2016-12-16T07:32:58.857Z,964
2016-12-16T07:33:58.869Z,964.01
2016-12-16T07:34:58.883Z,964.01
2016-12-16T07:35:58.897Z,964.02
2016-12-16T07:36:58.912Z,963.99
2016-12-16T07:37:58.925Z,964.02
2016-12-16T07:38:58.939Z,964.03
2016-12-16T07:39:58.953Z,964.03
2016-12-16T07:40:58.966Z,964.04
2016-12-16T07:41:58.980Z,963.97
2016-12-16T07:42:58.994Z,964.03
2016-12-16T07:43:59.009Z,964
2016-12-16T07:44:59.021Z,964.02
2016-12-16T07:45:59.035Z,964.02
2016-12-16T07:46:59.049Z,964.03
2016-12-16T07:47:59.063Z,964.04
2016-12-16T07:48:59.076Z,964.06
2016-12-16T07:49:59.091Z,964.04
2016-12-16T07:50:59.104Z,964.03
2016-12-16T07:51:59.118Z,964.04
2016-12-16T07:52:59.132Z,963.99
2016-12-16T07:53:59.318Z,964.07
2016-12-16T07:54:59.159Z,964.06
2016-12-16T07:55:59.172Z,964.06
2016-12-16T07:56:59.186Z,964.1
2016-12-16T07:57:59.200Z,964.11
2016-12-16T07:58:59.214Z,964.11
2016-12-16T07:59:59.227Z,964.12
2016-12-16T08:00:59.241Z,964.13
2016-12-16T08:01:59.267Z,964.16
2016-12-16T08:02:59.269Z,964.18
2016-12-16T08:03:59.281Z,964.15
2016-12-16T08:04:59.296Z,964.13
2016-12-16T08:05:59.309Z,964.11
2016-12-16T08:06:59.321Z,964.15
2016-12-16T08:07:59.337Z,964.1
2016-12-16T08:08:59.352Z,964.12
2016-12-16T08:09:59.362Z,964.11
2016-12-16T08:10:59.377Z,964.13
2016-12-16T08:11:59.391Z,964.15
2016-12-16T08:12:59.405Z,964.17
2016-12-16T08:13:59.418Z,964.18
2016-12-16T08:14:59.444Z,964.16
2016-12-16T08:15:59.457Z,964.24
2016-12-16T08:16:59.460Z,964.18
2016-12-16T08:17:59.472Z,964.19
2016-12-16T08:18:59.488Z,964.22
2016-12-16T08:19:59.500Z,964.24
2016-12-16T08:20:59.516Z,964.25
2016-12-16T08:21:59.527Z,964.27
2016-12-16T08:22:59.542Z,964.27
2016-12-16T08:23:59.556Z,964.31
2016-12-16T08:24:59.569Z,964.31
2016-12-16T08:25:59.582Z,964.32
2016-12-16T08:26:59.596Z,964.27
2016-12-16T08:27:59.610Z,964.32
2016-12-16T08:28:59.623Z,964.31
2016-12-16T08:29:59.637Z,964.29
2016-12-16T08:30:59.650Z,964.34
2016-12-16T08:31:59.664Z,964.32
2016-12-16T08:32:59.677Z,964.34
2016-12-16T08:33:59.692Z,964.35
2016-12-16T08:34:59.703Z,964.35
2016-12-16T08:35:59.718Z,964.42
2016-12-16T08:36:59.730Z,964.4
2016-12-16T08:37:59.795Z,964.39
2016-12-16T08:38:59.758Z,964.41
2016-12-16T08:39:59.771Z,964.46
2016-12-16T08:40:59.785Z,964.43
2016-12-16T08:41:59.799Z,964.5
2016-12-16T08:42:59.813Z,964.46
2016-12-16T08:43:59.825Z,964.47
2016-12-16T08:44:59.840Z,964.48
2016-12-16T08:45:59.854Z,964.48
2016-12-16T08:46:59.867Z,964.46
2016-12-16T08:47:59.880Z,964.48
2016-12-16T08:48:59.895Z,964.49
2016-12-16T08:49:59.907Z,964.47
2016-12-16T08:50:59.920Z,964.5
2016-12-16T08:51:59.936Z,964.49
2016-12-16T08:52:59.948Z,964.55
2016-12-16T08:53:59.962Z,964.53
2016-12-16T08:54:59.974Z,964.55
2016-12-16T08:55:59.989Z,964.54
2016-12-16T08:57:00.003Z,964.55
2016-12-16T08:58:00.017Z,964.56
2016-12-16T08:59:00.030Z,964.58
2016-12-16T09:00:00.046Z,964.58
2016-12-16T09:01:00.058Z,964.59
2016-12-16T09:02:00.071Z,964.58
2016-12-16T09:03:00.085Z,964.56
2016-12-16T09:04:00.099Z,964.64
2016-12-16T09:05:00.114Z,964.6
2016-12-16T09:06:00.126Z,964.6
2016-12-16T09:07:00.160Z,964.58
2016-12-16T09:08:00.155Z,964.6
2016-12-16T09:09:00.166Z,964.59
2016-12-16T09:10:00.180Z,964.63
2016-12-16T09:11:00.194Z,964.65
2016-12-16T09:12:00.208Z,964.63
2016-12-16T09:13:00.221Z,964.64
2016-12-16T09:14:00.237Z,964.63
2016-12-16T09:15:00.255Z,964.66
2016-12-16T09:16:00.264Z,964.72
2016-12-16T09:17:00.277Z,964.69
2016-12-16T09:18:00.290Z,964.7
2016-12-16T09:19:00.306Z,964.72
2016-12-16T09:20:00.317Z,964.69
2016-12-16T09:21:00.356Z,964.69
2016-12-16T09:22:00.346Z,964.73
2016-12-16T09:23:00.359Z,964.7
2016-12-16T09:24:00.372Z,964.71
2016-12-16T09:25:00.387Z,964.72
2016-12-16T09:26:00.401Z,964.71
2016-12-16T09:27:00.415Z,964.7
2016-12-16T09:28:00.428Z,964.69
2016-12-16T09:29:00.449Z,964.7
2016-12-16T09:30:00.454Z,964.69
2016-12-16T09:31:00.469Z,964.6
2016-12-16T09:32:00.482Z,964.66
2016-12-16T09:33:00.497Z,964.58
2016-12-16T09:34:00.510Z,964.62
2016-12-16T09:35:00.524Z,964.59
2016-12-16T09:36:00.539Z,964.66
2016-12-16T09:37:00.551Z,964.61
2016-12-16T09:38:00.566Z,964.65
2016-12-16T09:39:00.579Z,964.61
2016-12-16T09:40:00.593Z,964.62
2016-12-16T09:41:00.615Z,964.59
2016-12-16T09:42:00.620Z,964.6
2016-12-16T09:43:00.644Z,964.58
2016-12-16T09:44:00.648Z,964.61
2016-12-16T09:45:00.660Z,964.53
2016-12-16T09:46:00.676Z,964.54
2016-12-16T09:47:00.689Z,964.58
2016-12-16T09:48:00.706Z,964.58
2016-12-16T09:49:00.717Z,964.53
2016-12-16T09:50:00.730Z,964.49
2016-12-16T09:51:00.744Z,964.49
2016-12-16T09:52:00.758Z,964.5
2016-12-16T09:53:00.770Z,964.46
2016-12-16T09:54:00.784Z,964.49
2016-12-16T09:55:00.801Z,964.44
2016-12-16T09:56:00.813Z,964.46
2016-12-16T09:57:00.829Z,964.45
2016-12-16T09:58:00.840Z,964.46
2016-12-16T09:59:00.853Z,964.44
2016-12-16T10:00:00.869Z,964.42
2016-12-16T10:01:00.880Z,964.44
2016-12-16T10:02:00.896Z,964.44
2016-12-16T10:03:00.909Z,964.45
2016-12-16T10:04:00.920Z,964.5
2016-12-16T10:05:00.937Z,964.46
2016-12-16T10:06:00.950Z,964.47
2016-12-16T10:07:00.964Z,964.46
2016-12-16T10:08:00.978Z,964.47
2016-12-16T10:09:00.990Z,964.5
2016-12-16T10:10:01.006Z,964.51
2016-12-16T10:11:01.027Z,964.46
2016-12-16T10:12:01.052Z,964.51
2016-12-16T10:13:01.055Z,964.52
2016-12-16T10:14:01.059Z,964.5
2016-12-16T10:15:01.073Z,964.48
2016-12-16T10:16:01.087Z,964.46
2016-12-16T10:17:01.099Z,964.5
2016-12-16T10:18:01.115Z,964.52
2016-12-16T10:19:01.130Z,964.51
2016-12-16T10:20:01.143Z,964.5
2016-12-16T10:21:01.155Z,964.52
2016-12-16T10:22:01.169Z,964.5
2016-12-16T10:23:01.183Z,964.5
2016-12-16T10:24:01.196Z,964.5
2016-12-16T10:25:01.212Z,964.47
2016-12-16T10:26:01.240Z,964.44
2016-12-16T10:27:01.236Z,964.5
2016-12-16T10:28:01.251Z,964.45
2016-12-16T10:29:01.275Z,964.46
2016-12-16T10:30:01.276Z,964.5
2016-12-16T10:31:01.291Z,964.52
2016-12-16T10:32:01.305Z,964.42
2016-12-16T10:33:01.322Z,964.47
2016-12-16T10:34:01.332Z,964.5
2016-12-16T10:35:01.345Z,964.49
2016-12-16T10:36:01.359Z,964.48
2016-12-16T10:37:01.383Z,964.49
2016-12-16T10:38:01.385Z,964.5
2016-12-16T10:39:01.411Z,964.52
2016-12-16T10:40:01.413Z,964.51
2016-12-16T10:41:01.428Z,964.52
2016-12-16T10:42:01.440Z,964.5
2016-12-16T10:43:01.454Z,964.53
2016-12-16T10:44:01.466Z,964.51
2016-12-16T10:45:01.481Z,964.45
2016-12-16T10:46:01.494Z,964.51
2016-12-16T10:47:01.508Z,964.49
2016-12-16T10:48:01.530Z,964.47
2016-12-16T10:49:01.535Z,964.48
2016-12-16T10:50:01.549Z,964.46
2016-12-16T10:51:01.562Z,964.43
2016-12-16T10:52:01.575Z,964.42
2016-12-16T10:53:01.590Z,964.45
2016-12-16T10:54:01.603Z,964.45
2016-12-16T10:55:01.623Z,964.48
2016-12-16T10:56:01.628Z,964.42
2016-12-16T10:57:01.643Z,964.48
2016-12-16T10:58:01.657Z,964.47
2016-12-16T10:59:01.670Z,964.51
2016-12-16T11:00:01.684Z,964.49
2016-12-16T11:01:01.711Z,964.48
2016-12-16T11:02:01.718Z,964.43
2016-12-16T11:03:01.725Z,964.41
2016-12-16T11:04:01.738Z,964.42
2016-12-16T11:05:01.753Z,964.42
2016-12-16T11:06:01.763Z,964.38
2016-12-16T11:07:01.780Z,964.39
2016-12-16T11:08:01.794Z,964.35
2016-12-16T11:09:01.807Z,964.31
2016-12-16T11:10:01.821Z,964.29
2016-12-16T11:11:01.834Z,964.36
2016-12-16T11:12:01.849Z,964.34
2016-12-16T11:13:01.863Z,964.34
2016-12-16T11:14:01.875Z,964.37
2016-12-16T11:15:01.898Z,964.37
2016-12-16T11:16:01.903Z,964.36
2016-12-16T11:17:01.919Z,964.39
2016-12-16T11:18:01.931Z,964.4
2016-12-16T11:19:01.956Z,964.38
2016-12-16T11:20:01.960Z,964.36
2016-12-16T11:21:01.973Z,964.43
2016-12-16T11:22:01.987Z,964.38
2016-12-16T11:23:02.000Z,964.4
2016-12-16T11:24:02.018Z,964.41
2016-12-16T11:25:02.028Z,964.34
2016-12-16T11:26:02.042Z,964.39
2016-12-16T11:27:02.056Z,964.42
2016-12-16T11:28:02.070Z,964.38
2016-12-16T11:29:02.084Z,964.37
2016-12-16T11:30:02.099Z,964.36
2016-12-16T11:31:02.132Z,964.4
2016-12-16T11:32:02.125Z,964.36
2016-12-16T11:33:02.139Z,964.3
2016-12-16T11:34:02.154Z,964.34
2016-12-16T11:35:02.169Z,964.34
2016-12-16T11:36:02.181Z,964.35
2016-12-16T11:37:02.195Z,964.36
2016-12-16T11:38:02.209Z,964.33
2016-12-16T11:39:02.223Z,964.38
2016-12-16T11:40:02.237Z,964.4
2016-12-16T11:41:02.252Z,964.37
2016-12-16T11:42:02.265Z,964.38
2016-12-16T11:43:02.279Z,964.38
2016-12-16T11:44:02.293Z,964.34
2016-12-16T11:45:02.307Z,964.4
2016-12-16T11:46:02.322Z,964.38
2016-12-16T11:47:02.335Z,964.41
2016-12-16T11:48:02.349Z,964.38
2016-12-16T11:49:02.363Z,964.42
2016-12-16T11:50:02.376Z,964.43
2016-12-16T11:51:02.391Z,964.4
2016-12-16T11:52:02.405Z,964.43
2016-12-16T11:53:02.422Z,964.43
2016-12-16T11:54:02.433Z,964.44
2016-12-16T11:55:02.447Z,964.47
2016-12-16T11:56:02.461Z,964.48
2016-12-16T11:57:02.474Z,964.48
2016-12-16T11:58:02.489Z,964.51
2016-12-16T11:59:02.504Z,964.51
2016-12-16T12:00:02.517Z,964.55
2016-12-16T12:01:02.531Z,964.47
2016-12-16T12:02:02.544Z,964.53
2016-12-16T12:03:02.561Z,964.51
2016-12-16T12:04:02.578Z,964.49
2016-12-16T12:05:02.587Z,964.53
2016-12-16T12:06:02.602Z,964.51
2016-12-16T12:07:02.616Z,964.52
2016-12-16T12:08:02.631Z,964.55
2016-12-16T12:09:02.645Z,964.51
2016-12-16T12:10:02.660Z,964.53
2016-12-16T12:11:02.674Z,964.51
2016-12-16T12:12:02.687Z,964.5
2016-12-16T12:13:02.702Z,964.48
2016-12-16T12:14:02.715Z,964.47
2016-12-16T12:15:02.730Z,964.5
2016-12-16T12:16:02.743Z,964.48
2016-12-16T12:17:02.758Z,964.49
2016-12-16T12:18:02.772Z,964.49
2016-12-16T12:19:02.788Z,964.5
2016-12-16T12:20:02.801Z,964.54
2016-12-16T12:21:02.814Z,964.52
2016-12-16T12:22:02.837Z,964.56
2016-12-16T12:23:02.842Z,964.51
2016-12-16T12:24:02.856Z,964.56
2016-12-16T12:25:02.883Z,964.56
2016-12-16T12:26:02.885Z,964.54
2016-12-16T12:27:02.898Z,964.56
2016-12-16T12:28:02.914Z,964.51
2016-12-16T12:29:02.927Z,964.52
2016-12-16T12:30:02.940Z,964.52
2016-12-16T12:31:02.954Z,964.5
2016-12-16T12:32:02.969Z,964.57
2016-12-16T12:33:02.984Z,964.52